createdAt,value
2016-10-03T07:33:07.198Z,1025.37
2016-10-03T07:38:07.126Z,1025.44
2016-10-03T07:43:07.040Z,1025.48
2016-10-03T07:48:06.961Z,1025.56
2016-10-03T07:53:06.888Z,1025.68
2016-10-03T07:58:06.817Z,1025.77
2016-10-03T08:03:06.748Z,1025.98
2016-10-03T08:08:06.683Z,1025.93
2016-10-03T08:13:06.617Z,1025.87
2016-10-03T08:18:06.555Z,1026.01
2016-10-03T08:23:06.495Z,1027.31
2016-10-03T08:28:06.439Z,1026.81
2016-10-03T08:33:06.381Z,1026.14
2016-10-03T08:38:06.325Z,1026.25
2016-10-03T08:44:49.487Z,1026.28
2016-10-03T08:49:49.437Z,1026.35
2016-10-03T08:54:49.393Z,1026.39
2016-10-03T08:59:49.344Z,1026.5
2016-10-03T09:04:49.300Z,1026.52
2016-10-03T09:09:49.254Z,1026.51
2016-10-03T09:14:49.209Z,1026.73
2016-10-03T09:19:49.167Z,1026.66
2016-10-03T09:24:49.124Z,1026.74
2016-10-03T09:29:49.088Z,1026.82
2016-10-03T09:34:49.040Z,1027.23
2016-10-03T09:39:48.994Z,1027.06
2016-10-03T09:44:48.954Z,1027.01
2016-10-03T09:49:48.906Z,1027.9
2016-10-03T09:54:48.866Z,1027.03
2016-10-03T09:59:48.821Z,1027.02
2016-10-03T10:04:48.779Z,1027.11
2016-10-03T10:09:48.735Z,1027.11
2016-10-03T10:14:48.691Z,1027.17
2016-10-03T10:19:48.646Z,1027.17
2016-10-03T10:24:48.600Z,1027.16
2016-10-03T10:29:48.555Z,1027.27
2016-10-03T10:34:48.510Z,1027.28
2016-10-03T10:39:48.470Z,1027.3
2016-10-03T10:44:48.425Z,1027.34
2016-10-03T10:49:48.378Z,1027.36
2016-10-03T10:54:48.335Z,1027.39
2016-10-03T10:59:48.291Z,1027.43
2016-10-03T11:04:48.245Z,1027.41
2016-10-03T11:09:48.202Z,1027.41
2016-10-03T11:14:48.158Z,1027.42
2016-10-03T11:19:48.113Z,1027.51
2016-10-03T11:24:48.081Z,1027.55
2016-10-03T11:29:48.015Z,1027.57
2016-10-03T11:34:47.953Z,1027.66
2016-10-03T11:39:47.898Z,1027.76
2016-10-03T11:44:47.841Z,1027.75
2016-10-03T11:49:47.834Z,1027.74
2016-10-03T11:54:47.825Z,1027.85
2016-10-03T11:59:47.822Z,1027.92
2016-10-03T12:04:47.819Z,1027.95
2016-10-03T12:09:47.815Z,1027.95
2016-10-03T12:14:47.810Z,1027.92
2016-10-03T12:19:47.807Z,1027.99
2016-10-03T12:24:47.802Z,1028.03
2016-10-03T12:29:47.791Z,1027.97
2016-10-03T12:34:47.780Z,1027.99
2016-10-03T12:39:47.777Z,1027.88
2016-10-03T12:44:47.763Z,1027.85
2016-10-03T12:49:47.761Z,1027.89
2016-10-03T12:54:47.753Z,1027.92
2016-10-03T12:59:47.745Z,1028.04
2016-10-03T13:04:47.741Z,1028.02
2016-10-03T13:09:47.743Z,1028.12
2016-10-03T13:14:47.735Z,1028.17
2016-10-03T13:19:47.733Z,1028.25
2016-10-03T13:24:47.731Z,1028.29
2016-10-03T13:29:47.730Z,1028.29
2016-10-03T13:34:47.728Z,1028.31
2016-10-03T13:39:47.726Z,1028.43
2016-10-03T13:44:47.720Z,1028.49
2016-10-03T13:49:47.719Z,1028.46
2016-10-03T13:54:47.712Z,1028.45
2016-10-03T13:59:47.707Z,1028.47
2016-10-03T14:04:47.703Z,1028.57
2016-10-03T14:09:47.696Z,1028.59
2016-10-03T14:14:47.691Z,1028.73
2016-10-03T14:19:47.685Z,1028.76
2016-10-03T14:24:47.682Z,1028.79
2016-10-03T14:29:47.683Z,1028.79
2016-10-03T14:34:47.673Z,1028.74
2016-10-03T14:39:47.671Z,1028.76
2016-10-03T14:44:47.665Z,1028.66
2016-10-03T14:49:47.657Z,1028.61
2016-10-03T14:54:47.651Z,1028.59
2016-10-03T14:59:47.643Z,1028.67
2016-10-03T15:04:47.658Z,1028.8
2016-10-03T15:09:47.628Z,1028.71
2016-10-03T15:14:47.627Z,1028.73
2016-10-03T15:19:47.621Z,1028.71
2016-10-03T15:24:47.608Z,1028.7
2016-10-03T15:29:47.612Z,1028.77
2016-10-03T15:34:47.607Z,1028.7
2016-10-03T15:39:47.604Z,1028.74
2016-10-03T15:44:47.595Z,1028.78
2016-10-03T15:49:47.590Z,1028.75
2016-10-03T15:54:47.586Z,1028.84
2016-10-03T15:59:47.583Z,1028.96
2016-10-03T16:04:47.571Z,1029.03
2016-10-03T16:09:47.562Z,1029.08
2016-10-03T16:14:47.552Z,1029.15
2016-10-03T16:19:47.543Z,1029.19
2016-10-03T16:24:47.534Z,1029.25
2016-10-03T16:29:47.525Z,1029.32
2016-10-03T16:34:47.512Z,1029.4
2016-10-03T16:39:47.500Z,1029.43
2016-10-03T16:44:47.490Z,1029.55
2016-10-03T16:49:47.478Z,1029.68
2016-10-03T16:54:47.463Z,1029.77
2016-10-03T16:59:47.454Z,1029.82
2016-10-03T17:04:47.448Z,1029.86
2016-10-03T17:09:47.435Z,1029.95
2016-10-03T17:14:47.425Z,1030.01
2016-10-03T17:19:47.417Z,1030.01
2016-10-03T17:24:47.405Z,1030.12
2016-10-03T17:29:47.391Z,1030.13
2016-10-03T17:34:47.377Z,1030.18
2016-10-03T17:39:47.357Z,1030.2
2016-10-03T17:44:47.338Z,1030.27
2016-10-03T17:49:47.324Z,1030.35
2016-10-03T17:54:47.302Z,1030.47
2016-10-03T17:59:47.289Z,1030.56
2016-10-03T18:04:47.283Z,1030.66
2016-10-03T18:09:47.268Z,1030.72
2016-10-03T18:14:47.250Z,1030.77
2016-10-03T18:19:47.253Z,1030.77
2016-10-03T18:24:47.234Z,1030.79
2016-10-03T18:29:47.218Z,1030.81
2016-10-03T18:34:47.200Z,1030.88
2016-10-03T18:39:47.187Z,1030.96
2016-10-03T18:44:47.198Z,1031.05
2016-10-03T18:49:47.169Z,1031.02
2016-10-03T18:54:47.156Z,1031.1
2016-10-03T18:59:47.152Z,1031.14
2016-10-03T19:04:47.135Z,1031.21
2016-10-03T19:09:47.123Z,1031.18
2016-10-03T19:14:47.104Z,1031.28
2016-10-03T19:19:47.097Z,1031.26
2016-10-03T19:24:47.078Z,1031.32
2016-10-03T19:29:47.067Z,1031.4
2016-10-03T19:34:47.046Z,1031.5
2016-10-03T19:39:47.030Z,1031.49
2016-10-03T19:44:47.017Z,1031.51
2016-10-03T19:49:47.002Z,1031.49
2016-10-03T19:54:46.983Z,1031.55
2016-10-03T19:59:46.966Z,1031.58
2016-10-03T20:04:46.949Z,1031.68
